createdAt,value
2023-05-01T00:02:11.280Z,16.95
2023-05-01T00:04:39.191Z,16.95
2023-05-01T00:07:08.494Z,16.98
2023-05-01T00:09:36.431Z,17.00
2023-05-01T00:12:04.780Z,17.04
2023-05-01T00:14:32.644Z,17.07
2023-05-01T00:17:01.073Z,17.11
2023-05-01T00:19:29.107Z,17.11
2023-05-01T00:21:57.186Z,17.13
2023-05-01T00:24:26.440Z,17.16
2023-05-01T00:26:54.332Z,17.16
2023-05-01T00:29:22.273Z,17.14
2023-05-01T00:31:50.300Z,17.13
2023-05-01T00:34:18.195Z,17.09
2023-05-01T00:36:48.017Z,17.08
2023-05-01T00:39:17.201Z,17.06
2023-05-01T00:41:46.427Z,17.03
2023-05-01T00:44:14.604Z,17.03
2023-05-01T00:46:43.660Z,17.05
2023-05-01T00:49:11.650Z,17.05
2023-05-01T00:51:39.509Z,17.03
2023-05-01T00:54:07.451Z,17.02
2023-05-01T00:56:35.404Z,17.02
2023-05-01T00:59:05.056Z,17.02
2023-05-01T01:01:33.362Z,17.02
2023-05-01T01:04:02.031Z,17.00
2023-05-01T01:06:35.045Z,17.01
2023-05-01T01:09:09.594Z,16.99
2023-05-01T01:11:41.947Z,16.94
2023-05-01T01:14:13.091Z,16.93
2023-05-01T01:16:43.536Z,16.96
2023-05-01T01:19:22.233Z,16.96
2023-05-01T01:21:51.461Z,16.97
2023-05-01T01:24:27.853Z,17.01
2023-05-01T01:27:13.148Z,17.01
2023-05-01T01:29:45.242Z,17.02
2023-05-01T01:32:28.254Z,16.99
2023-05-01T01:34:59.935Z,16.93
2023-05-01T01:37:31.469Z,16.91
2023-05-01T01:40:02.437Z,16.89
2023-05-01T01:42:32.114Z,16.85
2023-05-01T01:45:03.050Z,16.79
2023-05-01T01:47:32.437Z,16.74
2023-05-01T01:50:04.409Z,16.71
2023-05-01T01:52:32.282Z,16.67
2023-05-01T01:55:01.958Z,16.68
2023-05-01T01:57:29.906Z,16.67
2023-05-01T01:59:57.905Z,16.69
2023-05-01T02:02:27.233Z,16.71
2023-05-01T02:04:56.804Z,16.75
2023-05-01T02:07:26.095Z,16.75
2023-05-01T02:09:54.017Z,16.74
2023-05-01T02:12:22.657Z,16.78
2023-05-01T02:14:51.537Z,16.79
2023-05-01T02:17:20.146Z,16.79
2023-05-01T02:19:48.212Z,16.86
2023-05-01T02:22:17.165Z,16.93
2023-05-01T02:24:46.432Z,16.96
2023-05-01T02:27:17.695Z,16.96
2023-05-01T02:29:45.569Z,16.97
2023-05-01T02:32:13.595Z,16.98
2023-05-01T02:34:42.124Z,16.99
2023-05-01T02:37:11.778Z,17.00
2023-05-01T02:39:39.806Z,17.00
2023-05-01T02:42:09.661Z,16.99
2023-05-01T02:44:53.217Z,16.95
2023-05-01T02:47:21.957Z,16.98
2023-05-01T02:49:51.137Z,16.96
2023-05-01T02:52:19.875Z,16.97
2023-05-01T02:54:47.790Z,16.97
2023-05-01T02:57:18.055Z,16.95
2023-05-01T02:59:45.951Z,16.95
2023-05-01T03:02:13.932Z,16.93
2023-05-01T03:04:41.903Z,16.94
2023-05-01T03:07:09.910Z,16.97
2023-05-01T03:09:38.250Z,16.98
2023-05-01T03:12:06.694Z,16.98
2023-05-01T03:14:35.994Z,16.98
2023-05-01T03:17:03.882Z,16.98
2023-05-01T03:19:31.822Z,16.96
2023-05-01T03:22:00.137Z,16.98
2023-05-01T03:24:28.302Z,17.00
2023-05-01T03:26:56.294Z,17.01
2023-05-01T03:29:24.216Z,17.02
2023-05-01T03:31:53.615Z,17.03
2023-05-01T03:34:21.551Z,17.01
2023-05-01T03:36:49.448Z,16.99
2023-05-01T03:39:17.712Z,16.96
2023-05-01T03:41:45.595Z,16.93
2023-05-01T03:44:13.447Z,16.91
2023-05-01T03:46:41.418Z,16.88
2023-05-01T03:49:10.746Z,16.85
2023-05-01T03:51:38.613Z,16.83
2023-05-01T03:54:07.320Z,16.82
2023-05-01T03:56:36.733Z,16.80
2023-05-01T03:59:04.608Z,16.79
2023-05-01T04:01:33.636Z,16.76
2023-05-01T04:04:02.334Z,16.77
2023-05-01T04:06:31.706Z,16.77
2023-05-01T04:08:59.614Z,16.77
2023-05-01T04:11:27.501Z,16.80
2023-05-01T04:13:55.399Z,16.81
2023-05-01T04:16:23.370Z,16.78
2023-05-01T04:18:51.319Z,16.78
2023-05-01T04:21:19.193Z,16.79
2023-05-01T04:23:48.464Z,16.79
2023-05-01T04:26:16.767Z,16.78
2023-05-01T04:28:44.639Z,16.78
2023-05-01T04:31:12.549Z,16.79
2023-05-01T04:33:40.485Z,16.80
2023-05-01T04:36:08.789Z,16.82
2023-05-01T04:38:38.215Z,16.82
2023-05-01T04:41:07.609Z,16.82
2023-05-01T04:43:35.522Z,16.82
2023-05-01T04:46:04.622Z,16.82
2023-05-01T04:48:32.568Z,16.81
2023-05-01T04:51:00.453Z,16.78
2023-05-01T04:53:28.630Z,16.78
2023-05-01T04:55:56.559Z,16.73
2023-05-01T04:58:25.818Z,16.67
2023-05-01T05:00:53.657Z,16.64
2023-05-01T05:03:22.145Z,16.64
2023-05-01T05:05:50.162Z,16.64
2023-05-01T05:08:18.041Z,16.64
2023-05-01T05:10:46.062Z,16.65
2023-05-01T05:13:13.910Z,16.68
2023-05-01T05:15:43.148Z,16.70
2023-05-01T05:18:11.164Z,16.75
2023-05-01T05:20:42.314Z,16.79
2023-05-01T05:23:10.305Z,16.82
2023-05-01T05:25:38.203Z,16.86
2023-05-01T05:28:06.244Z,16.90
2023-05-01T05:30:34.142Z,16.93
2023-05-01T05:33:03.644Z,16.94
2023-05-01T05:35:31.667Z,16.90
2023-05-01T05:37:59.716Z,16.81
2023-05-01T05:40:27.588Z,16.69
2023-05-01T05:42:56.661Z,16.62
2023-05-01T05:45:24.523Z,16.57
2023-05-01T05:47:52.400Z,16.58
2023-05-01T05:50:21.662Z,16.61
2023-05-01T05:52:49.743Z,16.66
2023-05-01T05:55:17.741Z,16.70
2023-05-01T05:57:45.656Z,16.74
2023-05-01T06:00:14.747Z,16.80
2023-05-01T06:02:42.674Z,16.85
2023-05-01T06:05:11.331Z,16.89
2023-05-01T06:07:40.982Z,16.90
2023-05-01T06:10:09.810Z,16.92
2023-05-01T06:12:39.963Z,16.93
2023-05-01T06:15:15.704Z,16.99
2023-05-01T06:17:43.655Z,17.05
2023-05-01T06:20:13.475Z,17.07
2023-05-01T06:22:42.726Z,17.09
2023-05-01T06:25:11.394Z,17.06
2023-05-01T06:27:39.276Z,17.12
2023-05-01T06:30:09.750Z,17.11
2023-05-01T06:32:37.929Z,17.19
2023-05-01T06:35:06.430Z,17.23
2023-05-01T06:37:34.475Z,17.27
2023-05-01T06:40:04.789Z,17.35
2023-05-01T06:42:32.774Z,17.36
2023-05-01T06:45:00.971Z,17.38
2023-05-01T06:47:28.898Z,17.41
2023-05-01T06:49:57.022Z,17.48
2023-05-01T06:52:25.695Z,17.55
2023-05-01T06:54:53.525Z,17.66
2023-05-01T06:57:22.942Z,17.77
2023-05-01T06:59:50.837Z,17.91
2023-05-01T07:02:18.760Z,18.05
2023-05-01T07:04:46.709Z,18.11
2023-05-01T07:07:14.655Z,18.11
2023-05-01T07:09:42.663Z,18.08
2023-05-01T07:12:10.548Z,18.05
2023-05-01T07:14:41.547Z,18.07
2023-05-01T07:17:10.221Z,18.07
2023-05-01T07:19:39.013Z,18.03
2023-05-01T07:22:07.048Z,18.04
2023-05-01T07:24:34.939Z,18.05
2023-05-01T07:27:02.909Z,18.08
2023-05-01T07:29:30.936Z,18.08
2023-05-01T07:32:01.468Z,18.05
2023-05-01T07:34:29.403Z,18.02
2023-05-01T07:36:57.528Z,18.01
2023-05-01T07:39:25.447Z,17.98
2023-05-01T07:41:53.316Z,17.96
2023-05-01T07:44:21.211Z,17.99
2023-05-01T07:46:49.126Z,18.02
2023-05-01T07:49:18.378Z,18.05
2023-05-01T07:51:46.721Z,18.06
2023-05-01T07:54:16.202Z,18.05
2023-05-01T07:56:44.508Z,18.05
2023-05-01T07:59:12.420Z,18.07
2023-05-01T08:01:41.280Z,18.19
2023-05-01T08:04:09.289Z,18.37
2023-05-01T08:06:38.687Z,18.52
2023-05-01T08:09:06.583Z,18.65
2023-05-01T08:11:34.968Z,18.77
2023-05-01T08:14:03.847Z,18.87
2023-05-01T08:16:31.813Z,18.91
2023-05-01T08:19:00.014Z,18.94
2023-05-01T08:21:27.846Z,18.98
2023-05-01T08:23:57.699Z,19.10
2023-05-01T08:26:25.600Z,19.19
2023-05-01T08:28:53.521Z,19.25
2023-05-01T08:31:22.867Z,19.28
2023-05-01T08:33:50.827Z,19.30
2023-05-01T08:36:20.693Z,19.36
2023-05-01T08:38:49.199Z,19.47
2023-05-01T08:41:18.656Z,19.49
2023-05-01T08:43:46.552Z,19.48
2023-05-01T08:46:14.632Z,19.46
2023-05-01T08:48:43.630Z,19.53
2023-05-01T08:51:11.566Z,19.62
2023-05-01T08:53:39.435Z,19.75
2023-05-01T08:56:07.729Z,19.88
2023-05-01T08:58:36.963Z,19.98
2023-05-01T09:01:04.857Z,20.03
2023-05-01T09:03:33.363Z,20.01
2023-05-01T09:06:01.456Z,20.01
2023-05-01T09:08:29.387Z,20.03
2023-05-01T09:10:57.308Z,20.00
2023-05-01T09:13:25.193Z,19.97
2023-05-01T09:15:54.503Z,20.01
2023-05-01T09:18:22.599Z,20.02
2023-05-01T09:20:50.577Z,20.05
2023-05-01T09:23:20.256Z,20.16
2023-05-01T09:25:49.561Z,20.22
2023-05-01T09:28:18.709Z,20.25
2023-05-01T09:30:46.741Z,20.26
2023-05-01T09:33:16.940Z,20.19
2023-05-01T09:35:52.089Z,20.40
2023-05-01T09:38:20.917Z,20.61
2023-05-01T09:40:48.924Z,20.74
2023-05-01T09:43:25.595Z,20.79
2023-05-01T09:46:09.396Z,20.83
2023-05-01T09:48:39.011Z,20.78
2023-05-01T09:51:21.967Z,20.81
2023-05-01T09:53:50.180Z,20.75
2023-05-01T09:56:18.477Z,20.72
2023-05-01T09:58:46.745Z,20.73
2023-05-01T10:01:15.310Z,20.72
2023-05-01T10:03:46.380Z,20.78
2023-05-01T10:06:27.239Z,20.84
2023-05-01T10:08:55.249Z,20.91
2023-05-01T10:11:23.610Z,21.05
2023-05-01T10:14:06.501Z,21.25
2023-05-01T10:16:35.855Z,21.20
2023-05-01T10:19:05.275Z,21.09
2023-05-01T10:21:33.601Z,21.00
2023-05-01T10:24:02.394Z,21.02
2023-05-01T10:26:30.280Z,21.10
2023-05-01T10:28:59.927Z,21.21
2023-05-01T10:31:28.920Z,21.30
2023-05-01T10:33:57.011Z,21.36
2023-05-01T10:36:28.650Z,21.40
2023-05-01T10:38:56.588Z,21.47
2023-05-01T10:42:03.769Z,21.51
2023-05-01T10:44:35.052Z,21.35
2023-05-01T10:47:41.559Z,21.36
2023-05-01T10:50:11.517Z,21.36
2023-05-01T10:53:26.537Z,21.43
2023-05-01T10:55:55.939Z,21.39
2023-05-01T10:58:58.332Z,21.53
2023-05-01T11:01:33.049Z,21.57
2023-05-01T11:04:01.958Z,21.69
2023-05-01T11:06:30.090Z,21.80
2023-05-01T11:08:58.585Z,21.93
2023-05-01T11:11:52.407Z,22.05
2023-05-01T11:14:20.299Z,22.12
2023-05-01T11:16:49.647Z,22.37
2023-05-01T11:19:46.036Z,22.44
2023-05-01T11:22:14.273Z,21.96
2023-05-01T11:24:42.560Z,21.82
2023-05-01T11:27:15.785Z,22.04
2023-05-01T11:29:45.946Z,22.29
2023-05-01T11:32:17.973Z,22.64
2023-05-01T11:34:46.133Z,23.04
2023-05-01T11:37:14.578Z,23.46
2023-05-01T11:39:49.692Z,23.71
2023-05-01T11:42:21.350Z,23.70
2023-05-01T11:45:07.906Z,23.59
2023-05-01T11:47:36.252Z,23.47
2023-05-01T11:50:04.318Z,23.40
2023-05-01T11:52:32.310Z,23.31
2023-05-01T11:55:00.390Z,23.29
2023-05-01T11:57:29.776Z,23.78
2023-05-01T11:59:57.723Z,24.33
2023-05-01T12:02:25.874Z,24.67
2023-05-01T12:04:55.714Z,24.91
2023-05-01T12:07:23.975Z,25.19
2023-05-01T12:09:52.032Z,25.43
2023-05-01T12:12:19.994Z,25.44
2023-05-01T12:14:49.394Z,25.02
2023-05-01T12:17:17.665Z,24.74
2023-05-01T12:19:49.952Z,24.59
2023-05-01T12:22:17.967Z,24.98
2023-05-01T12:24:52.866Z,25.45
2023-05-01T12:27:20.914Z,25.64
2023-05-01T12:29:50.244Z,25.57
2023-05-01T12:32:18.288Z,25.49
2023-05-01T12:34:46.242Z,25.30
2023-05-01T12:37:14.136Z,25.10
2023-05-01T12:39:44.677Z,25.14
2023-05-01T12:42:13.216Z,24.99
2023-05-01T12:44:41.101Z,24.87
2023-05-01T12:47:11.062Z,25.06
2023-05-01T12:49:39.060Z,25.20
2023-05-01T12:52:08.876Z,25.46
2023-05-01T12:54:38.507Z,25.77
2023-05-01T12:57:06.638Z,26.05
2023-05-01T12:59:37.788Z,26.32
2023-05-01T13:02:06.651Z,26.54
2023-05-01T13:04:36.189Z,26.68
2023-05-01T13:07:04.131Z,26.77
2023-05-01T13:09:32.371Z,26.87
2023-05-01T13:12:01.931Z,26.82
2023-05-01T13:14:30.563Z,26.65
2023-05-01T13:16:58.432Z,26.52
2023-05-01T13:19:28.867Z,26.18
2023-05-01T13:21:58.665Z,25.99
2023-05-01T13:24:26.722Z,25.98
2023-05-01T13:26:59.492Z,25.85
2023-05-01T13:29:28.373Z,25.78
2023-05-01T13:31:56.407Z,25.77
2023-05-01T13:34:28.888Z,25.81
2023-05-01T13:36:58.197Z,26.08
2023-05-01T13:39:26.333Z,26.31
2023-05-01T13:41:54.293Z,26.65
2023-05-01T13:44:22.837Z,26.96
2023-05-01T13:46:50.930Z,27.18
2023-05-01T13:49:20.317Z,27.27
2023-05-01T13:51:48.861Z,27.06
2023-05-01T13:54:18.153Z,26.97
2023-05-01T13:56:46.652Z,27.16
2023-05-01T13:59:14.610Z,27.27
2023-05-01T14:01:46.338Z,27.44
2023-05-01T14:04:16.931Z,27.68
2023-05-01T14:06:45.302Z,27.68
2023-05-01T14:09:13.189Z,27.50
2023-05-01T14:11:49.120Z,27.09
2023-05-01T14:14:17.649Z,26.93
2023-05-01T14:16:48.533Z,26.83
2023-05-01T14:19:17.352Z,26.74
2023-05-01T14:21:45.392Z,27.05
2023-05-01T14:24:13.615Z,27.41
2023-05-01T14:26:44.424Z,27.80
2023-05-01T14:29:19.788Z,27.93
2023-05-01T14:31:48.168Z,27.86
2023-05-01T14:34:17.250Z,27.99
2023-05-01T14:36:45.206Z,28.22
2023-05-01T14:39:13.342Z,28.31
2023-05-01T14:41:42.381Z,28.41
2023-05-01T14:44:12.721Z,28.62
2023-05-01T14:46:46.334Z,28.64
2023-05-01T14:49:18.994Z,28.59
2023-05-01T14:51:46.945Z,28.61
2023-05-01T14:54:15.105Z,28.53
2023-05-01T14:56:43.549Z,28.78
2023-05-01T14:59:12.491Z,28.88
2023-05-01T15:01:41.869Z,29.23
2023-05-01T15:04:11.021Z,29.24
2023-05-01T15:06:39.418Z,29.11
2023-05-01T15:09:07.499Z,28.81
2023-05-01T15:11:35.644Z,28.72
2023-05-01T15:14:04.131Z,28.81
2023-05-01T15:16:32.853Z,28.89
2023-05-01T15:19:02.405Z,28.82
2023-05-01T15:21:30.523Z,29.02
2023-05-01T15:24:02.220Z,29.11
2023-05-01T15:26:30.269Z,28.90
2023-05-01T15:28:58.638Z,28.54
2023-05-01T15:31:26.570Z,28.26
2023-05-01T15:33:54.640Z,28.33
2023-05-01T15:36:24.179Z,28.19
2023-05-01T15:38:52.685Z,27.78
2023-05-01T15:44:11.016Z,28.13
2023-05-01T15:46:39.006Z,28.73
2023-05-01T15:49:08.623Z,29.21
2023-05-01T15:51:37.874Z,29.54
2023-05-01T15:54:05.822Z,29.59
2023-05-01T15:56:35.796Z,29.71
2023-05-01T15:59:04.437Z,29.86
2023-05-01T16:01:33.123Z,30.21
2023-05-01T16:04:01.355Z,30.38
2023-05-01T16:06:29.989Z,30.51
2023-05-01T16:09:00.291Z,30.10
2023-05-01T16:11:28.498Z,29.31
2023-05-01T16:13:56.466Z,28.34
2023-05-01T16:16:25.519Z,27.79
2023-05-01T16:18:55.483Z,27.33
2023-05-01T16:21:23.643Z,26.76
2023-05-01T16:23:53.051Z,25.98
2023-05-01T16:26:24.764Z,25.23
2023-05-01T16:28:54.800Z,25.13
2023-05-01T16:31:27.411Z,25.25
2023-05-01T16:33:56.814Z,25.05
2023-05-01T16:36:24.846Z,24.58
2023-05-01T16:38:53.709Z,24.13
2023-05-01T16:41:24.308Z,23.72
2023-05-01T16:43:52.279Z,23.33
2023-05-01T16:46:20.756Z,23.03
2023-05-01T16:48:48.680Z,22.77
2023-05-01T16:51:16.580Z,22.49
2023-05-01T16:53:44.444Z,22.25
2023-05-01T16:56:12.971Z,21.98
2023-05-01T16:58:43.788Z,21.76
2023-05-01T17:01:11.971Z,21.56
2023-05-01T17:03:40.093Z,21.38
2023-05-01T17:06:08.511Z,21.20
2023-05-01T17:08:36.518Z,21.12
2023-05-01T17:11:04.655Z,21.07
2023-05-01T17:13:32.748Z,21.02
2023-05-01T17:16:02.090Z,21.00
2023-05-01T17:18:30.248Z,20.99
2023-05-01T17:20:58.158Z,20.97
2023-05-01T17:23:28.174Z,21.02
2023-05-01T17:25:56.041Z,21.09
2023-05-01T17:28:24.366Z,21.06
2023-05-01T17:30:52.715Z,21.16
2023-05-01T17:33:22.012Z,21.12
2023-05-01T17:35:49.939Z,21.15
2023-05-01T17:38:18.171Z,21.13
2023-05-01T17:40:46.270Z,21.18
2023-05-01T17:43:14.207Z,21.28
2023-05-01T17:45:43.900Z,21.35
2023-05-01T17:48:12.126Z,21.29
2023-05-01T17:50:41.438Z,21.15
2023-05-01T17:53:09.627Z,20.96
2023-05-01T17:55:39.139Z,20.76
2023-05-01T17:58:07.532Z,20.84
2023-05-01T18:00:35.787Z,20.82
2023-05-01T18:03:04.733Z,20.80
2023-05-01T18:05:32.764Z,20.69
2023-05-01T18:08:02.026Z,20.57
2023-05-01T18:10:31.301Z,20.48
2023-05-01T18:12:59.345Z,20.41
2023-05-01T18:15:27.254Z,20.39
2023-05-01T18:17:55.196Z,20.24
2023-05-01T18:20:23.739Z,20.20
2023-05-01T18:22:53.324Z,20.07
2023-05-01T18:25:22.914Z,20.09
2023-05-01T18:27:50.870Z,20.05
2023-05-01T18:30:18.836Z,20.02
2023-05-01T18:32:48.792Z,20.02
2023-05-01T18:35:17.792Z,19.95
2023-05-01T18:37:46.531Z,19.90
2023-05-01T18:40:14.681Z,19.86
2023-05-01T18:42:43.958Z,19.79
2023-05-01T18:45:12.122Z,19.70
2023-05-01T18:47:40.068Z,19.59
2023-05-01T18:50:09.367Z,19.55
2023-05-01T18:52:37.917Z,19.53
2023-05-01T18:55:06.532Z,19.51
2023-05-01T18:57:35.094Z,19.53
2023-05-01T19:00:05.852Z,19.51
2023-05-01T19:02:33.814Z,19.48
2023-05-01T19:05:01.830Z,19.45
2023-05-01T19:07:29.832Z,19.43
2023-05-01T19:09:57.816Z,19.41
2023-05-01T19:12:25.859Z,19.41
2023-05-01T19:14:53.730Z,19.42
2023-05-01T19:17:23.139Z,19.41
2023-05-01T19:19:51.183Z,19.39
2023-05-01T19:22:19.205Z,19.34
2023-05-01T19:24:47.119Z,19.28
2023-05-01T19:27:15.002Z,19.22
2023-05-01T19:29:43.300Z,19.15
2023-05-01T19:32:11.749Z,19.06
2023-05-01T19:34:41.251Z,18.95
2023-05-01T19:37:09.403Z,18.88
2023-05-01T19:39:37.435Z,18.82
2023-05-01T19:42:05.527Z,18.73
2023-05-01T19:44:33.483Z,18.63
2023-05-01T19:47:01.949Z,18.58
2023-05-01T19:49:30.050Z,18.48
2023-05-01T19:51:59.506Z,18.37
2023-05-01T19:54:27.545Z,18.30
2023-05-01T19:56:56.205Z,18.24
2023-05-01T19:59:24.154Z,18.18
2023-05-01T20:01:52.299Z,18.10
2023-05-01T20:04:22.953Z,18.05
2023-05-01T20:06:51.521Z,18.01
2023-05-01T20:09:21.034Z,17.98
2023-05-01T20:11:48.885Z,17.94
2023-05-01T20:14:16.772Z,17.93
2023-05-01T20:16:44.909Z,17.91
2023-05-01T20:19:12.890Z,17.89
2023-05-01T20:21:41.097Z,17.87
2023-05-01T20:24:10.464Z,17.84
2023-05-01T20:26:39.719Z,17.81
2023-05-01T20:29:09.392Z,17.77
2023-05-01T20:31:37.412Z,17.72
2023-05-01T20:34:05.787Z,17.69
2023-05-01T20:36:33.871Z,17.63
2023-05-01T20:39:01.827Z,17.60
2023-05-01T20:41:30.921Z,17.54
2023-05-01T20:44:01.066Z,17.47
2023-05-01T20:46:29.468Z,17.47
2023-05-01T20:48:57.652Z,17.42
2023-05-01T20:51:27.330Z,17.38
2023-05-01T20:53:55.205Z,17.34
2023-05-01T20:56:23.731Z,17.29
2023-05-01T20:58:51.584Z,17.29
2023-05-01T21:01:20.973Z,17.29
2023-05-01T21:03:49.130Z,17.26
2023-05-01T21:06:17.167Z,17.23
2023-05-01T21:08:45.104Z,17.21
2023-05-01T21:11:12.993Z,17.20
2023-05-01T21:13:41.027Z,17.16
2023-05-01T21:16:09.118Z,17.14
2023-05-01T21:18:39.064Z,17.15
2023-05-01T21:21:07.100Z,17.11
2023-05-01T21:23:34.976Z,17.11
2023-05-01T21:26:03.216Z,17.06
2023-05-01T21:28:31.118Z,16.99
2023-05-01T21:30:59.024Z,16.97
2023-05-01T21:33:28.423Z,16.94
2023-05-01T21:35:57.704Z,16.91
2023-05-01T21:38:25.592Z,16.87
2023-05-01T21:40:53.471Z,16.85
2023-05-01T21:43:21.383Z,16.86
2023-05-01T21:45:49.758Z,16.85
2023-05-01T21:48:17.690Z,16.84
2023-05-01T21:50:49.096Z,16.85
2023-05-01T21:53:18.349Z,16.83
2023-05-01T21:55:46.426Z,16.82
2023-05-01T21:58:14.591Z,16.81
2023-05-01T22:00:42.730Z,16.80
2023-05-01T22:03:10.909Z,16.76
2023-05-01T22:05:41.039Z,16.76
2023-05-01T22:08:08.957Z,16.77
2023-05-01T22:10:38.197Z,16.76
2023-05-01T22:13:06.500Z,16.75
2023-05-01T22:15:34.649Z,16.75
2023-05-01T22:18:02.665Z,16.75
2023-05-01T22:20:30.793Z,16.73
2023-05-01T22:22:58.750Z,16.72
2023-05-01T22:25:26.698Z,16.70
2023-05-01T22:27:56.087Z,16.67
2023-05-01T22:30:24.013Z,16.62
2023-05-01T22:32:51.949Z,16.61
2023-05-01T22:35:19.906Z,16.59
2023-05-01T22:37:47.915Z,16.57
2023-05-01T22:40:16.043Z,16.57
2023-05-01T22:42:43.924Z,16.55
2023-05-01T22:45:13.181Z,16.54
2023-05-01T22:47:41.179Z,16.42
2023-05-01T22:50:10.062Z,16.51
2023-05-01T22:52:37.939Z,16.50
2023-05-01T22:55:07.102Z,16.49
2023-05-01T22:57:35.116Z,16.49
2023-05-01T23:00:03.120Z,16.48
2023-05-01T23:02:36.466Z,16.49
2023-05-01T23:05:04.907Z,16.50
2023-05-01T23:07:32.776Z,16.48
2023-05-01T23:10:01.045Z,16.46
2023-05-01T23:12:29.244Z,16.44
2023-05-01T23:14:57.523Z,16.39
2023-05-01T23:17:25.406Z,16.32
2023-05-01T23:19:54.791Z,16.25
2023-05-01T23:24:51.030Z,16.05
2023-05-01T23:27:19.794Z,15.97
2023-05-01T23:29:53.890Z,15.92
2023-05-01T23:32:25.001Z,15.83
2023-05-01T23:34:54.933Z,15.73
2023-05-01T23:37:22.939Z,15.67
2023-05-01T23:39:53.546Z,15.64
2023-05-01T23:42:21.622Z,15.60
2023-05-01T23:44:49.659Z,15.60
2023-05-01T23:47:17.559Z,15.59
2023-05-01T23:49:45.452Z,15.58
2023-05-01T23:52:14.692Z,15.58
2023-05-01T23:54:42.928Z,15.56
2023-05-01T23:57:10.818Z,15.54
2023-05-01T23:59:38.711Z,15.53
